Time;durP1;ratioP1;P1;durP2;ratioP2;P2;SDS_P1;SDS_P2;PMS_P1;PMS_P2;Temp;Humidity;BMP_temperature;BMP_pressure;BME280_temperature;BME280_humidity;BME280_pressure;Samples;Min_cycle;Max_cycle;Signal;HPM_P1;HPM_P2
2023/12/18 00:02:21;;;;;;;39.90;13.13;;;;;;;3.38;100.00;102508.22;4994759;28;20862;-72
2023/12/18 00:04:48;;;;;;;36.47;14.17;;;;;;;3.31;100.00;102503.31;4992420;28;20204;-72
2023/12/18 00:07:15;;;;;;;34.73;13.63;;;;;;;3.27;100.00;102502.16;4970185;28;20209;-72
2023/12/18 00:09:41;;;;;;;39.73;13.87;;;;;;;3.25;100.00;102505.47;4990902;28;20231;-72
2023/12/18 00:12:08;;;;;;;43.07;15.00;;;;;;;3.22;100.00;102500.91;4993663;28;20288;-72
2023/12/18 00:14:35;;;;;;;40.13;14.07;;;;;;;3.24;100.00;102488.84;4993269;28;20259;-72
2023/12/18 00:17:01;;;;;;;34.97;13.30;;;;;;;3.20;100.00;102492.00;4992725;28;20231;-71
2023/12/18 00:19:28;;;;;;;44.37;14.47;;;;;;;3.18;100.00;102500.53;4992535;28;20227;-71
2023/12/18 00:21:54;;;;;;;35.60;13.83;;;;;;;3.11;100.00;102497.44;4992890;28;20235;-73
2023/12/18 00:24:21;;;;;;;35.90;13.60;;;;;;;3.11;100.00;102504.38;4992490;28;20212;-71
2023/12/18 00:26:47;;;;;;;37.77;13.70;;;;;;;3.08;100.00;102494.59;4991818;28;20207;-72
2023/12/18 00:29:14;;;;;;;35.87;13.10;;;;;;;3.00;100.00;102494.81;4992790;28;20240;-71
2023/12/18 00:31:40;;;;;;;36.13;12.40;;;;;;;2.97;100.00;102490.25;4995169;28;20204;-71
2023/12/18 00:34:06;;;;;;;36.40;13.10;;;;;;;2.88;100.00;102486.00;4989235;28;20221;-72
2023/12/18 00:36:33;;;;;;;32.87;11.43;;;;;;;2.81;100.00;102477.69;4991784;28;20223;-72
2023/12/18 00:39:00;;;;;;;26.30;11.67;;;;;;;2.76;100.00;102470.25;4992394;28;20225;-72
2023/12/18 00:41:26;;;;;;;33.23;12.47;;;;;;;2.67;100.00;102467.81;4989067;28;20692;-72
2023/12/18 00:43:52;;;;;;;30.50;11.47;;;;;;;2.65;100.00;102460.66;4994075;28;21836;-71
2023/12/18 00:46:19;;;;;;;30.83;11.43;;;;;;;2.57;100.00;102464.38;5008324;28;20285;-71
2023/12/18 00:48:45;;;;;;;33.70;11.63;;;;;;;2.55;100.00;102473.81;4992135;28;20251;-72
2023/12/18 00:51:12;;;;;;;28.17;11.17;;;;;;;2.53;100.00;102481.53;5004487;28;20306;-73
2023/12/18 00:53:38;;;;;;;25.47;9.67;;;;;;;2.53;100.00;102475.41;4989746;28;21020;-72
2023/12/18 00:56:05;;;;;;;27.47;10.40;;;;;;;2.50;100.00;102479.59;4994784;28;20780;-72
2023/12/18 00:58:31;;;;;;;25.40;9.97;;;;;;;2.49;100.00;102467.31;4992479;28;21442;-71
2023/12/18 01:00:58;;;;;;;25.53;11.27;;;;;;;2.49;100.00;102469.91;4990056;28;20203;-72
2023/12/18 01:03:24;;;;;;;26.87;10.03;;;;;;;2.40;100.00;102469.19;4988611;28;20799;-71
2023/12/18 01:05:51;;;;;;;23.83;9.47;;;;;;;2.29;100.00;102470.03;4992050;28;20609;-72
2023/12/18 01:08:17;;;;;;;23.00;9.33;;;;;;;2.22;100.00;102465.09;4990219;28;20734;-72
2023/12/18 01:10:44;;;;;;;29.87;8.70;;;;;;;2.19;100.00;102464.88;4991408;28;20222;-71
2023/12/18 01:13:10;;;;;;;19.57;8.63;;;;;;;2.12;100.00;102463.47;4992314;28;20296;-72
2023/12/18 01:15:37;;;;;;;20.73;9.00;;;;;;;2.16;100.00;102464.63;4993801;28;20207;-71
2023/12/18 01:18:03;;;;;;;23.47;9.37;;;;;;;2.14;100.00;102471.44;4990706;28;20202;-72
2023/12/18 01:20:30;;;;;;;19.63;8.00;;;;;;;2.07;100.00;102476.94;4992084;28;20235;-72
2023/12/18 01:22:56;;;;;;;19.40;7.57;;;;;;;2.03;100.00;102457.50;5002231;28;20292;-72
2023/12/18 01:25:30;;;;;;;23.43;8.70;;;;;;;2.01;100.00;102472.16;4992486;28;20300;-72
2023/12/18 01:27:56;;;;;;;20.57;8.17;;;;;;;2.03;100.00;102472.28;4993316;28;20220;-72
2023/12/18 01:30:23;;;;;;;18.87;8.00;;;;;;;2.05;100.00;102469.00;5000443;28;20315;-71
2023/12/18 01:32:50;;;;;;;22.67;8.73;;;;;;;2.07;100.00;102471.72;4990904;28;20212;-72
2023/12/18 01:35:16;;;;;;;21.53;8.23;;;;;;;2.04;100.00;102480.22;4989941;28;20203;-72
2023/12/18 01:37:43;;;;;;;21.97;8.63;;;;;;;2.05;100.00;102486.38;4988092;28;20233;-72
2023/12/18 01:40:10;;;;;;;20.60;8.40;;;;;;;2.08;100.00;102470.94;4986730;28;20253;-73
2023/12/18 01:42:37;;;;;;;17.90;8.17;;;;;;;2.10;100.00;102485.94;4990396;28;20229;-72
2023/12/18 01:45:04;;;;;;;18.50;7.93;;;;;;;2.12;100.00;102473.00;5009658;28;20199;-72
2023/12/18 01:47:30;;;;;;;22.63;8.67;;;;;;;2.03;100.00;102481.03;4991249;28;20215;-72
2023/12/18 01:49:57;;;;;;;15.57;7.47;;;;;;;2.04;100.00;102474.09;5007511;28;20318;-72
2023/12/18 01:52:24;;;;;;;16.43;7.47;;;;;;;1.98;100.00;102482.31;4984109;28;20284;-72
2023/12/18 01:54:51;;;;;;;15.20;7.63;;;;;;;1.99;100.00;102471.06;5008904;28;20216;-72
2023/12/18 01:57:19;;;;;;;13.63;6.53;;;;;;;1.99;100.00;102480.63;4991743;28;20219;-72
2023/12/18 01:59:49;;;;;;;12.80;6.00;;;;;;;1.97;100.00;102469.13;4991308;28;20313;-72
2023/12/18 02:02:16;;;;;;;16.67;8.07;;;;;;;1.97;100.00;102466.53;4986246;28;20238;-72
2023/12/18 02:04:43;;;;;;;20.87;8.00;;;;;;;1.96;100.00;102469.91;4994407;28;20213;-72
2023/12/18 02:07:10;;;;;;;15.07;7.27;;;;;;;1.91;100.00;102473.88;4990032;28;20230;-72
2023/12/18 02:09:40;;;;;;;15.53;6.73;;;;;;;1.88;100.00;102475.44;4994611;28;20225;-72
2023/12/18 02:12:06;;;;;;;18.30;6.97;;;;;;;1.86;100.00;102463.97;4999265;28;20259;-72
2023/12/18 02:14:33;;;;;;;14.07;6.10;;;;;;;1.86;100.00;102470.88;4994893;28;20303;-70
2023/12/18 02:16:59;;;;;;;13.47;6.70;;;;;;;1.83;100.00;102486.31;5001033;28;20701;-72
2023/12/18 02:19:28;;;;;;;17.53;7.07;;;;;;;1.74;100.00;102481.25;5001753;28;20227;-71
2023/12/18 02:21:56;;;;;;;16.57;7.60;;;;;;;1.72;100.00;102485.44;5004522;28;20209;-72
2023/12/18 02:24:22;;;;;;;15.13;6.77;;;;;;;1.70;100.00;102475.66;5009075;28;20216;-72
2023/12/18 02:26:49;;;;;;;13.63;6.47;;;;;;;1.72;100.00;102474.06;5036300;28;20202;-72
2023/12/18 02:29:15;;;;;;;14.53;6.17;;;;;;;1.74;100.00;102465.56;5030460;28;20225;-72
2023/12/18 02:31:42;;;;;;;18.13;6.87;;;;;;;1.71;100.00;102461.81;5024748;28;20567;-71
2023/12/18 02:34:09;;;;;;;14.07;6.80;;;;;;;1.72;100.00;102458.41;5003796;28;20207;-72
2023/12/18 02:36:35;;;;;;;17.10;7.33;;;;;;;1.71;100.00;102461.81;5009232;28;20216;-72
2023/12/18 02:39:02;;;;;;;14.97;5.83;;;;;;;1.70;100.00;102453.06;5011105;28;20237;-71
2023/12/18 02:41:28;;;;;;;15.80;6.80;;;;;;;1.73;100.00;102458.53;5011127;28;20663;-71
2023/12/18 02:43:56;;;;;;;15.90;7.03;;;;;;;1.71;100.00;102457.50;5001722;28;20213;-72
2023/12/18 02:46:22;;;;;;;17.23;7.20;;;;;;;1.68;100.00;102451.13;5040043;28;20182;-71
2023/12/18 02:48:49;;;;;;;17.10;7.27;;;;;;;1.67;100.00;102455.41;5018702;28;20687;-72
2023/12/18 02:51:16;;;;;;;17.83;6.53;;;;;;;1.63;100.00;102453.34;5006795;28;20224;-71
2023/12/18 02:53:43;;;;;;;12.40;6.43;;;;;;;1.63;100.00;102450.75;5004513;28;20214;-71
2023/12/18 02:56:12;;;;;;;18.03;6.47;;;;;;;1.65;100.00;102450.88;5017037;28;20217;-73
2023/12/18 02:58:40;;;;;;;17.67;6.80;;;;;;;1.66;100.00;102451.00;5026667;28;20211;-71
2023/12/18 03:01:06;;;;;;;20.17;6.57;;;;;;;1.68;100.00;102451.13;5005725;28;20213;-71
2023/12/18 03:03:33;;;;;;;14.67;5.80;;;;;;;1.67;100.00;102455.41;5005047;28;20704;-72
2023/12/18 03:05:59;;;;;;;15.30;6.17;;;;;;;1.65;100.00;102450.88;5024733;28;20208;-72
2023/12/18 03:08:26;;;;;;;16.07;6.30;;;;;;;1.61;100.00;102433.13;5002685;28;20209;-71
2023/12/18 03:10:52;;;;;;;13.67;5.63;;;;;;;1.61;100.00;102451.41;5006461;28;20215;-71
2023/12/18 03:13:18;;;;;;;13.97;5.40;;;;;;;1.54;100.00;102447.34;5001085;28;20212;-72
2023/12/18 03:15:45;;;;;;;15.17;5.83;;;;;;;1.54;100.00;102443.03;5005775;28;20578;-71
2023/12/18 03:18:11;;;;;;;16.93;5.77;;;;;;;1.54;100.00;102447.34;4999094;28;20367;-72
2023/12/18 03:20:38;;;;;;;18.47;5.30;;;;;;;1.55;100.00;102450.06;5004781;28;20215;-72
2023/12/18 03:23:05;;;;;;;13.57;5.97;;;;;;;1.57;100.00;102447.59;4992773;28;20586;-72
2023/12/18 03:25:31;;;;;;;14.00;5.33;;;;;;;1.54;100.00;102452.56;4992656;28;20310;-71
2023/12/18 03:27:57;;;;;;;17.93;6.43;;;;;;;1.55;100.00;102441.34;5001570;28;20291;-71
2023/12/18 03:30:24;;;;;;;14.27;5.87;;;;;;;1.51;100.00;102434.94;5006963;28;20280;-72
2023/12/18 03:32:50;;;;;;;13.93;5.87;;;;;;;1.50;100.00;102448.78;5003929;28;20300;-72
2023/12/18 03:35:17;;;;;;;15.90;6.13;;;;;;;1.47;100.00;102451.16;5006762;28;20211;-72
2023/12/18 03:37:43;;;;;;;14.03;6.23;;;;;;;1.45;100.00;102450.13;5005449;28;20332;-71
2023/12/18 03:40:10;;;;;;;15.97;6.70;;;;;;;1.44;100.00;102450.00;4996246;28;20584;-72
2023/12/18 03:42:38;;;;;;;13.83;6.33;;;;;;;1.45;100.00;102442.28;4992911;28;20271;-71
2023/12/18 03:45:05;;;;;;;19.70;7.30;;;;;;;1.47;100.00;102438.09;4994251;28;20286;-72
2023/12/18 03:47:32;;;;;;;17.77;6.40;;;;;;;1.49;100.00;102438.22;4995248;28;20206;-71
2023/12/18 03:49:58;;;;;;;20.47;6.87;;;;;;;1.49;100.00;102433.00;4995691;28;20282;-71
2023/12/18 03:52:25;;;;;;;16.90;6.53;;;;;;;1.49;100.00;102425.16;4992582;28;20676;-72
2023/12/18 03:54:51;;;;;;;17.63;6.17;;;;;;;1.45;100.00;102431.84;4997258;28;20210;-72
2023/12/18 03:57:17;;;;;;;17.67;6.07;;;;;;;1.52;100.00;102433.25;5009069;28;20239;-72
2023/12/18 03:59:44;;;;;;;14.10;6.30;;;;;;;1.54;100.00;102429.97;4986525;28;20256;-71
2023/12/18 04:02:10;;;;;;;14.03;6.00;;;;;;;1.49;100.00;102426.09;4991001;28;20217;-71
2023/12/18 04:04:37;;;;;;;15.53;5.50;;;;;;;1.45;100.00;102426.63;4991220;28;20592;-71
2023/12/18 04:07:03;;;;;;;12.80;5.07;;;;;;;1.38;100.00;102423.38;5009566;28;20206;-72
2023/12/18 04:09:30;;;;;;;14.43;6.47;;;;;;;1.32;100.00;102425.50;4991566;28;20303;-72
2023/12/18 04:11:56;;;;;;;13.40;5.20;;;;;;;1.25;100.00;102416.25;4995074;28;20233;-72
2023/12/18 04:14:22;;;;;;;10.60;4.37;;;;;;;1.21;100.00;102414.16;4995084;28;20682;-72
2023/12/18 04:16:49;;;;;;;12.80;5.87;;;;;;;1.21;100.00;102416.78;4994113;28;20602;-72
2023/12/18 04:19:15;;;;;;;14.87;6.63;;;;;;;1.21;100.00;102417.69;4989279;28;20220;-71
2023/12/18 04:21:42;;;;;;;17.70;6.00;;;;;;;1.24;100.00;102424.84;5008642;28;20206;-72
2023/12/18 04:24:08;;;;;;;15.30;6.40;;;;;;;1.30;100.00;102429.66;4991387;28;20208;-71
2023/12/18 04:26:34;;;;;;;19.03;6.47;;;;;;;1.34;100.00;102422.22;4990704;28;20204;-72
2023/12/18 04:29:01;;;;;;;15.60;6.43;;;;;;;1.34;100.00;102432.66;4991403;28;20226;-72
2023/12/18 04:31:27;;;;;;;22.60;7.97;;;;;;;1.34;100.00;102432.66;4990066;28;20220;-71
2023/12/18 04:33:54;;;;;;;17.23;6.33;;;;;;;1.37;100.00;102426.78;4986657;28;20292;-72
2023/12/18 04:36:21;;;;;;;14.50;6.60;;;;;;;1.38;100.00;102424.28;4992740;28;20229;-71
2023/12/18 04:38:47;;;;;;;19.87;6.70;;;;;;;1.37;100.00;102418.94;4991751;28;20664;-72
2023/12/18 04:41:21;;;;;;;13.53;5.97;;;;;;;1.38;100.00;102424.28;5010707;28;20210;-71
2023/12/18 04:43:48;;;;;;;14.83;5.77;;;;;;;1.43;100.00;102422.97;5006509;28;20209;-72
2023/12/18 04:46:15;;;;;;;18.83;7.07;;;;;;;1.41;100.00;102423.63;4995693;28;20668;-72
2023/12/18 04:48:41;;;;;;;15.60;6.80;;;;;;;1.41;100.00;102423.63;5007678;28;20239;-72
2023/12/18 04:51:09;;;;;;;19.80;7.50;;;;;;;1.47;100.00;102426.75;4991638;28;20301;-72
2023/12/18 04:53:36;;;;;;;21.03;7.63;;;;;;;1.46;100.00;102427.53;4989928;28;20212;-72
2023/12/18 04:56:04;;;;;;;17.37;7.03;;;;;;;1.45;100.00;102425.72;5008807;28;20196;-71
2023/12/18 04:58:31;;;;;;;22.27;7.17;;;;;;;1.42;100.00;102425.47;4988796;28;20228;-72
2023/12/18 05:00:58;;;;;;;18.90;6.60;;;;;;;1.39;100.00;102409.53;4994129;28;20197;-71
2023/12/18 05:03:25;;;;;;;16.07;6.93;;;;;;;1.38;100.00;102419.06;4993982;28;20266;-72
2023/12/18 05:05:51;;;;;;;16.43;6.20;;;;;;;1.41;100.00;102415.81;4993424;28;20219;-72
2023/12/18 05:08:18;;;;;;;15.13;6.17;;;;;;;1.47;100.00;102416.31;4992447;28;20285;-71
2023/12/18 05:10:44;;;;;;;14.60;6.43;;;;;;;1.46;100.00;102418.00;4988900;28;20200;-71
2023/12/18 05:13:11;;;;;;;12.93;6.03;;;;;;;1.45;100.00;102412.66;4992819;28;20211;-71
2023/12/18 05:15:37;;;;;;;10.20;4.70;;;;;;;1.46;100.00;102418.00;4991180;28;20284;-72
2023/12/18 05:18:05;;;;;;;13.23;5.87;;;;;;;1.44;100.00;102421.28;4989953;28;20392;-72
2023/12/18 05:20:32;;;;;;;17.23;6.10;;;;;;;1.43;100.00;102416.84;4993463;28;20320;-72
2023/12/18 05:22:58;;;;;;;19.07;6.07;;;;;;;1.41;100.00;102419.31;4991681;28;20213;-71
2023/12/18 05:25:25;;;;;;;15.73;5.10;;;;;;;1.46;100.00;102423.22;4991824;28;21581;-72
2023/12/18 05:27:51;;;;;;;15.87;6.30;;;;;;;1.43;100.00;102414.22;4993249;28;20198;-71
2023/12/18 05:30:18;;;;;;;11.97;5.73;;;;;;;1.44;100.00;102421.28;4992855;28;20744;-71
2023/12/18 05:32:45;;;;;;;13.07;5.20;;;;;;;1.40;100.00;102420.09;4989162;28;20325;-71
2023/12/18 05:35:12;;;;;;;14.20;6.20;;;;;;;1.45;100.00;102415.25;4991114;28;20692;-71
2023/12/18 05:37:39;;;;;;;14.07;5.00;;;;;;;1.45;100.00;102418.78;4989751;28;20221;-71
2023/12/18 05:40:05;;;;;;;14.23;5.97;;;;;;;1.48;100.00;102419.03;4988863;28;20239;-71
2023/12/18 05:42:32;;;;;;;12.90;5.93;;;;;;;1.50;100.00;102413.94;4994362;28;20239;-71
2023/12/18 05:45:01;;;;;;;13.90;5.70;;;;;;;1.52;100.00;102407.13;4992363;28;20278;-71
2023/12/18 05:47:27;;;;;;;14.40;5.87;;;;;;;1.48;100.00;102413.81;4990201;28;20925;-71
2023/12/18 05:49:53;;;;;;;22.60;6.77;;;;;;;1.49;100.00;102418.25;5025536;23;20250;-69
2023/12/18 05:52:20;;;;;;;13.23;5.43;;;;;;;1.48;100.00;102411.19;4991184;28;20217;-69
2023/12/18 05:54:46;;;;;;;12.83;6.00;;;;;;;1.55;100.00;102412.59;5016583;28;20210;-68
2023/12/18 05:57:16;;;;;;;11.67;5.50;;;;;;;1.55;100.00;102410.00;5009153;28;20225;-68
2023/12/18 05:59:43;;;;;;;18.03;6.27;;;;;;;1.64;100.00;102415.09;5004521;28;20227;-69
2023/12/18 06:02:12;;;;;;;17.37;6.80;;;;;;;1.72;100.00;102411.41;4989925;28;20748;-69
2023/12/18 06:04:41;;;;;;;16.67;5.93;;;;;;;1.72;100.00;102422.75;4991227;28;20737;-69
2023/12/18 06:07:08;;;;;;;17.10;5.43;;;;;;;1.71;100.00;102418.31;4992132;28;20691;-69
2023/12/18 06:09:37;;;;;;;13.13;5.40;;;;;;;1.63;100.00;102416.78;4989095;28;20278;-69
2023/12/18 06:12:04;;;;;;;14.37;5.57;;;;;;;1.66;100.00;102414.44;4985198;28;20332;-69
2023/12/18 06:14:30;;;;;;;15.43;5.63;;;;;;;1.67;100.00;102410.13;4984265;28;20197;-69
2023/12/18 06:16:57;;;;;;;13.90;5.87;;;;;;;1.60;100.00;102406.06;4983591;28;20210;-69
2023/12/18 06:19:23;;;;;;;14.13;6.60;;;;;;;1.59;100.00;102412.06;4984528;28;20223;-68
2023/12/18 06:21:49;;;;;;;15.20;5.20;;;;;;;1.58;100.00;102405.94;4964072;28;20214;-69
2023/12/18 06:24:16;;;;;;;15.17;6.00;;;;;;;1.55;100.00;102410.91;4983028;28;20651;-69
2023/12/18 06:26:43;;;;;;;12.27;5.47;;;;;;;1.55;100.00;102404.78;4985452;28;20208;-69
2023/12/18 06:29:09;;;;;;;16.93;5.90;;;;;;;1.62;100.00;102404.53;4984823;28;20245;-69
2023/12/18 06:31:36;;;;;;;14.47;5.77;;;;;;;1.71;100.00;102402.66;5001125;28;20211;-68
2023/12/18 06:34:03;;;;;;;16.30;6.67;;;;;;;1.66;100.00;102393.53;4984093;28;20212;-68
2023/12/18 06:36:30;;;;;;;15.97;6.30;;;;;;;1.71;100.00;102410.47;4983347;28;20223;-68
2023/12/18 06:38:57;;;;;;;16.27;5.57;;;;;;;1.77;100.00;102403.13;4984555;28;20295;-68
2023/12/18 06:41:23;;;;;;;13.17;5.43;;;;;;;1.75;100.00;102403.81;4982117;28;20298;-68
2023/12/18 06:43:50;;;;;;;15.40;5.27;;;;;;;1.74;100.00;102415.03;4984014;28;20205;-69
2023/12/18 06:46:16;;;;;;;16.00;6.27;;;;;;;1.74;100.00;102417.66;4985499;28;20211;-68
2023/12/18 06:48:42;;;;;;;17.03;5.60;;;;;;;1.71;100.00;102415.72;4984452;28;20272;-68
2023/12/18 06:51:10;;;;;;;15.97;5.93;;;;;;;1.73;100.00;102426.28;4982787;28;20209;-68
2023/12/18 06:53:36;;;;;;;14.67;5.60;;;;;;;1.72;100.00;102424.44;4982740;28;20210;-68
2023/12/18 06:56:03;;;;;;;15.60;5.47;;;;;;;1.73;100.00;102416.75;4984078;28;20649;-69
2023/12/18 06:58:30;;;;;;;13.93;5.87;;;;;;;1.73;100.00;102424.56;4983469;28;20306;-68
2023/12/18 07:00:56;;;;;;;20.80;6.53;;;;;;;1.73;100.00;102418.44;4980395;28;20226;-68
2023/12/18 07:03:24;;;;;;;15.77;5.83;;;;;;;1.78;100.00;102420.63;4965156;28;20211;-68
2023/12/18 07:05:51;;;;;;;15.13;5.53;;;;;;;1.74;100.00;102429.00;4977174;28;20238;-69
2023/12/18 07:08:17;;;;;;;13.27;5.50;;;;;;;1.76;100.00;102429.13;4978334;28;20203;-69
2023/12/18 07:10:45;;;;;;;15.83;5.77;;;;;;;1.76;100.00;102414.38;4985832;28;20594;-68
2023/12/18 07:13:11;;;;;;;11.17;5.90;;;;;;;1.77;100.00;102418.81;4984292;28;20212;-70
2023/12/18 07:15:38;;;;;;;18.20;5.90;;;;;;;1.89;100.00;102418.88;4968755;28;20300;-69
2023/12/18 07:18:07;;;;;;;13.27;6.30;;;;;;;1.92;100.00;102418.22;4970645;28;20332;-70
2023/12/18 07:20:34;;;;;;;15.43;6.17;;;;;;;1.91;100.00;102416.38;4977327;28;20815;-70
2023/12/18 07:23:00;;;;;;;13.40;5.47;;;;;;;1.88;100.00;102419.66;4972423;28;20234;-69
2023/12/18 07:25:27;;;;;;;17.43;5.87;;;;;;;1.85;100.00;102420.34;4971396;28;20774;-69
2023/12/18 07:27:53;;;;;;;13.47;5.53;;;;;;;1.86;100.00;102414.31;4983806;28;20201;-68
2023/12/18 07:30:20;;;;;;;14.10;5.90;;;;;;;1.86;100.00;102430.00;4982183;28;20249;-69
2023/12/18 07:32:47;;;;;;;15.40;6.47;;;;;;;1.83;100.00;102423.63;4982589;28;20211;-69
2023/12/18 07:35:13;;;;;;;10.97;5.50;;;;;;;1.82;100.00;102432.25;4982162;28;20209;-69
2023/12/18 07:37:40;;;;;;;19.63;7.13;;;;;;;1.83;100.00;102429.75;4985410;28;20334;-69
2023/12/18 07:40:07;;;;;;;13.93;6.20;;;;;;;1.80;100.00;102432.13;4981911;28;20236;-69
2023/12/18 07:42:33;;;;;;;18.63;6.27;;;;;;;1.81;100.00;102439.16;4982748;28;20741;-69
2023/12/18 07:44:59;;;;;;;13.93;6.07;;;;;;;1.90;100.00;102446.81;4982453;28;20200;-68
2023/12/18 07:47:26;;;;;;;15.60;6.20;;;;;;;1.90;100.00;102436.38;4981607;28;20208;-69
2023/12/18 07:49:52;;;;;;;17.37;7.13;;;;;;;1.89;100.00;102430.25;4982582;28;20239;-69
2023/12/18 07:52:19;;;;;;;12.67;6.20;;;;;;;1.95;100.00;102428.91;4981646;28;20213;-68
2023/12/18 07:54:45;;;;;;;17.03;6.00;;;;;;;1.99;100.00;102429.28;4975258;28;20214;-68
2023/12/18 07:57:12;;;;;;;14.20;5.93;;;;;;;1.91;100.00;102427.75;4982152;28;20206;-69
2023/12/18 07:59:39;;;;;;;14.43;6.13;;;;;;;1.96;100.00;102425.50;4970141;28;20349;-70
2023/12/18 08:02:07;;;;;;;14.20;6.10;;;;;;;1.98;100.00;102426.53;4978567;28;20203;-69
2023/12/18 08:04:35;;;;;;;13.30;6.20;;;;;;;1.99;100.00;102437.09;4964652;28;20214;-68
2023/12/18 08:07:02;;;;;;;17.67;6.33;;;;;;;2.01;100.00;102429.44;4981322;28;20206;-69
2023/12/18 08:09:28;;;;;;;15.27;5.90;;;;;;;1.97;100.00;102417.78;4955741;28;20254;-69
2023/12/18 08:11:55;;;;;;;18.37;6.57;;;;;;;1.97;100.00;102416.88;4980971;28;20511;-69
2023/12/18 08:14:21;;;;;;;17.33;6.50;;;;;;;1.95;100.00;102408.91;4981418;28;20217;-68
2023/12/18 08:16:49;;;;;;;13.83;5.77;;;;;;;2.00;100.00;102418.06;4977934;28;20215;-69
2023/12/18 08:19:15;;;;;;;14.80;6.10;;;;;;;2.04;100.00;102420.13;4980635;28;20334;-68
2023/12/18 08:21:43;;;;;;;15.53;5.63;;;;;;;2.05;100.00;102429.78;4980725;28;20266;-69
2023/12/18 08:24:10;;;;;;;15.53;6.30;;;;;;;2.04;100.00;102417.50;4980016;28;20774;-69
2023/12/18 08:26:36;;;;;;;14.40;5.40;;;;;;;2.06;100.00;102418.56;4981520;28;20197;-69
2023/12/18 08:29:04;;;;;;;15.80;6.10;;;;;;;2.01;100.00;102414.66;4982955;28;20254;-69
2023/12/18 08:31:34;;;;;;;14.70;7.00;;;;;;;2.02;100.00;102412.97;4980210;28;20288;-67
2023/12/18 08:34:00;;;;;;;21.20;7.43;;;;;;;2.06;100.00;102415.94;4982075;28;20230;-67
2023/12/18 08:36:29;;;;;;;13.93;6.33;;;;;;;2.17;100.00;102412.47;4979848;28;20716;-68
2023/12/18 08:38:56;;;;;;;14.13;6.20;;;;;;;2.18;100.00;102413.38;4982625;28;20234;-69
2023/12/18 08:41:22;;;;;;;17.43;7.00;;;;;;;2.23;100.00;102405.91;4983076;28;20210;-70
2023/12/18 08:43:48;;;;;;;18.53;6.23;;;;;;;2.33;100.00;102405.81;4979835;28;20297;-70
2023/12/18 08:46:30;;;;;;;13.23;5.93;;;;;;;2.30;100.00;102406.50;4981590;28;20781;-70
2023/12/18 08:48:56;;;;;;;16.47;6.83;;;;;;;2.33;100.00;102400.59;4977802;28;20579;-70
2023/12/18 08:51:23;;;;;;;15.33;6.57;;;;;;;2.44;100.00;102399.75;4984338;28;20203;-70
2023/12/18 08:53:50;;;;;;;11.63;5.33;;;;;;;2.50;100.00;102390.69;4985670;28;20200;-69
2023/12/18 08:56:16;;;;;;;13.20;6.30;;;;;;;2.63;100.00;102396.84;4982116;28;20213;-70
2023/12/18 08:58:42;;;;;;;14.90;6.20;;;;;;;2.78;100.00;102396.31;4984046;28;20307;-70
2023/12/18 09:01:09;;;;;;;16.47;6.23;;;;;;;2.86;100.00;102396.94;4984468;28;20566;-70
2023/12/18 09:03:36;;;;;;;15.73;7.03;;;;;;;2.82;100.00;102389.63;4989180;28;20804;-71
2023/12/18 09:06:03;;;;;;;17.57;6.80;;;;;;;2.88;100.00;102400.56;4967879;28;20687;-70
2023/12/18 09:08:39;;;;;;;15.73;6.60;;;;;;;2.91;100.00;102392.03;4983072;28;20288;-73
2023/12/18 09:11:06;;;;;;;15.03;6.13;;;;;;;2.96;100.00;102399.44;4984823;28;20666;-69
2023/12/18 09:13:37;;;;;;;20.67;6.43;;;;;;;2.91;100.00;102395.56;4979639;28;20222;-69
2023/12/18 09:16:05;;;;;;;12.40;5.90;;;;;;;2.97;100.00;102401.25;4984976;28;20286;-69
2023/12/18 09:18:32;;;;;;;13.77;5.90;;;;;;;3.09;100.00;102411.75;4980451;28;20212;-68
2023/12/18 09:20:59;;;;;;;12.80;5.93;;;;;;;3.17;100.00;102412.31;4983604;28;20224;-69
2023/12/18 09:23:26;;;;;;;15.37;6.47;;;;;;;3.12;100.00;102404.13;4988021;28;20224;-68
2023/12/18 09:25:53;;;;;;;15.83;6.73;;;;;;;3.11;100.00;102407.53;4981949;28;20211;-69
2023/12/18 09:28:19;;;;;;;15.90;6.97;;;;;;;3.15;100.00;102407.88;4987711;28;20704;-69
2023/12/18 09:30:46;;;;;;;12.50;6.07;;;;;;;3.22;100.00;102406.66;4982423;28;20235;-68
2023/12/18 09:33:12;;;;;;;13.27;6.30;;;;;;;3.13;100.00;102404.22;4989022;28;20578;-68
2023/12/18 09:35:39;;;;;;;16.47;6.83;;;;;;;3.10;100.00;102401.38;4976058;28;20320;-68
2023/12/18 09:38:06;;;;;;;13.57;6.20;;;;;;;3.03;100.00;102396.50;4974976;28;20214;-69
2023/12/18 09:40:33;;;;;;;14.03;6.73;;;;;;;3.06;100.00;102386.25;4983512;28;20228;-69
2023/12/18 09:43:03;;;;;;;12.43;6.70;;;;;;;3.12;100.00;102386.69;4984659;28;20203;-68
2023/12/18 09:45:30;;;;;;;14.57;6.30;;;;;;;3.15;100.00;102386.94;4984502;28;20239;-68
2023/12/18 09:47:58;;;;;;;14.30;6.77;;;;;;;3.18;100.00;102386.25;4986037;28;20204;-69
2023/12/18 09:50:24;;;;;;;16.80;6.80;;;;;;;3.17;100.00;102388.75;4982427;28;20221;-69
2023/12/18 09:53:08;;;;;;;11.63;6.07;;;;;;;3.15;100.00;102389.53;5000621;28;20272;-69
2023/12/18 09:55:35;;;;;;;16.90;6.37;;;;;;;3.20;100.00;102379.41;4986267;28;20209;-69
2023/12/18 09:58:02;;;;;;;12.33;5.77;;;;;;;2.85;100.00;102381.13;4987947;28;20201;-69
2023/12/18 10:00:29;;;;;;;13.63;6.23;;;;;;;2.81;100.00;102378.25;4982068;28;20308;-69
2023/12/18 10:02:56;;;;;;;13.20;6.03;;;;;;;2.81;100.00;102378.25;4986349;28;20243;-69
2023/12/18 10:05:23;;;;;;;13.73;6.07;;;;;;;2.76;100.00;102381.28;4984407;28;20215;-69
2023/12/18 10:07:51;;;;;;;19.07;6.23;;;;;;;2.57;100.00;102380.69;4985311;28;20199;-69
2023/12/18 10:10:18;;;;;;;12.53;5.63;;;;;;;2.64;100.00;102383.88;4987385;28;20275;-69
2023/12/18 10:12:46;;;;;;;14.43;5.83;;;;;;;2.54;100.00;102383.06;4980604;28;20653;-68
2023/12/18 10:15:14;;;;;;;11.07;5.40;;;;;;;2.62;100.00;102381.94;4977291;28;20207;-69
2023/12/18 10:17:41;;;;;;;11.23;5.57;;;;;;;2.55;100.00;102374.44;4985667;28;20206;-68
2023/12/18 10:20:08;;;;;;;14.07;5.30;;;;;;;2.58;100.00;102377.28;4986006;28;20697;-69
2023/12/18 10:22:35;;;;;;;14.10;6.07;;;;;;;2.62;100.00;102375.00;4985658;28;20847;-69
2023/12/18 10:25:04;;;;;;;12.07;5.57;;;;;;;2.70;100.00;102366.03;4985785;28;20774;-69
2023/12/18 10:27:32;;;;;;;12.60;5.63;;;;;;;2.80;100.00;102371.22;4983010;28;20209;-69
2023/12/18 10:29:58;;;;;;;14.63;6.50;;;;;;;2.84;100.00;102372.34;4983783;28;20226;-69
2023/12/18 10:32:27;;;;;;;10.50;5.37;;;;;;;2.98;100.00;102370.78;4986032;28;20217;-69
2023/12/18 10:34:55;;;;;;;11.43;5.53;;;;;;;2.91;100.00;102372.00;4979655;28;20218;-69
2023/12/18 10:37:23;;;;;;;12.87;5.80;;;;;;;2.87;100.00;102367.34;4981278;28;20203;-70
2023/12/18 10:39:53;;;;;;;14.53;6.60;;;;;;;2.83;100.00;102368.81;4980898;28;20239;-69
2023/12/18 10:42:28;;;;;;;11.60;5.37;;;;;;;2.94;100.00;102353.94;4987018;28;20203;-69
2023/12/18 10:44:58;;;;;;;10.33;5.23;;;;;;;3.07;100.00;102359.28;4985673;28;20288;-70
2023/12/18 10:47:26;;;;;;;10.90;5.50;;;;;;;3.11;100.00;102358.72;4990908;28;20211;-69
2023/12/18 10:49:53;;;;;;;13.53;5.90;;;;;;;3.14;100.00;102350.16;4985992;28;20226;-68
2023/12/18 10:52:22;;;;;;;14.27;5.83;;;;;;;3.25;100.00;102340.53;4990371;28;20667;-69
2023/12/18 10:54:50;;;;;;;12.07;6.30;;;;;;;3.45;100.00;102341.16;4989943;28;20211;-71
2023/12/18 10:57:20;;;;;;;8.97;5.63;;;;;;;3.57;100.00;102338.53;4990591;28;20663;-71
2023/12/18 10:59:48;;;;;;;12.60;5.87;;;;;;;3.62;100.00;102338.88;5004693;28;20243;-69
2023/12/18 11:02:15;;;;;;;13.00;6.77;;;;;;;3.53;100.00;102333.88;4990223;28;20212;-70
2023/12/18 11:04:48;;;;;;;9.90;5.73;;;;;;;3.62;100.00;102321.47;4987836;28;20251;-68
2023/12/18 11:07:19;;;;;;;11.70;6.20;;;;;;;3.68;100.00;102324.50;4990903;28;20197;-67
2023/12/18 11:09:47;;;;;;;11.50;6.30;;;;;;;3.84;100.00;102322.97;4988685;28;20232;-68
2023/12/18 11:12:16;;;;;;;11.80;6.70;;;;;;;3.96;100.00;102319.50;4989760;28;20196;-68
2023/12/18 11:14:55;;;;;;;12.57;6.83;;;;;;;4.11;100.00;102318.78;4986905;28;20297;-67
2023/12/18 11:17:55;;;;;;;12.57;5.90;;;;;;;4.15;100.00;102312.97;4986735;28;20201;-68